createdAt,value
2023-05-04T00:00:01.604Z,5.37
2023-05-04T00:02:29.356Z,5.53
2023-05-04T00:04:57.037Z,6.43
2023-05-04T00:07:24.618Z,5.50
2023-05-04T00:09:52.164Z,6.50
2023-05-04T00:12:19.788Z,6.73
2023-05-04T00:14:47.330Z,5.30
2023-05-04T00:17:15.287Z,5.77
2023-05-04T00:19:42.820Z,6.83
2023-05-04T00:22:10.502Z,6.30
2023-05-04T00:24:38.079Z,5.67
2023-05-04T00:27:05.593Z,6.33
2023-05-04T00:29:33.136Z,6.53
2023-05-04T00:32:00.765Z,6.63
2023-05-04T00:34:28.271Z,7.03
2023-05-04T00:36:55.838Z,6.87
2023-05-04T00:39:23.425Z,6.10
2023-05-04T00:41:50.982Z,5.60
2023-05-04T00:44:18.491Z,5.73
2023-05-04T00:46:46.095Z,5.80
2023-05-04T00:49:13.686Z,6.10
2023-05-04T00:51:41.268Z,6.30
2023-05-04T00:54:08.777Z,6.60
2023-05-04T00:56:36.437Z,5.73
2023-05-04T00:59:03.953Z,5.80
2023-05-04T01:01:31.691Z,6.03
2023-05-04T01:03:59.519Z,5.70
2023-05-04T01:06:34.095Z,6.67
2023-05-04T01:09:20.241Z,6.30
2023-05-04T01:11:54.438Z,6.47
2023-05-04T01:14:22.276Z,5.50
2023-05-04T01:16:51.070Z,5.70
2023-05-04T01:19:18.628Z,6.40
2023-05-04T01:21:46.171Z,5.73
2023-05-04T01:24:13.693Z,6.50
2023-05-04T01:26:42.598Z,5.83
2023-05-04T01:29:39.722Z,6.07
2023-05-04T01:32:07.355Z,5.53
2023-05-04T01:34:36.238Z,5.43
2023-05-04T01:37:03.935Z,6.50
2023-05-04T01:39:31.428Z,5.57
2023-05-04T01:41:59.065Z,5.73
2023-05-04T01:44:26.636Z,6.37
2023-05-04T01:46:54.175Z,5.83
2023-05-04T01:49:21.686Z,5.30
2023-05-04T01:51:49.232Z,5.87
2023-05-04T01:54:16.748Z,6.03
2023-05-04T01:56:44.379Z,5.80
2023-05-04T01:59:11.866Z,5.33
2023-05-04T02:01:39.482Z,5.93
2023-05-04T02:04:07.164Z,5.57
2023-05-04T02:06:34.840Z,6.10
2023-05-04T02:09:02.395Z,5.17
2023-05-04T02:11:30.003Z,6.67
2023-05-04T02:13:57.511Z,5.70
2023-05-04T02:16:25.112Z,6.23
2023-05-04T02:18:52.714Z,5.27
2023-05-04T02:21:20.297Z,6.33
2023-05-04T02:23:47.808Z,5.73
2023-05-04T02:26:15.354Z,5.97
2023-05-04T02:28:42.873Z,5.07
2023-05-04T02:31:10.509Z,6.27
2023-05-04T02:33:38.059Z,5.60
2023-05-04T02:36:05.866Z,5.83
2023-05-04T02:38:33.480Z,6.00
2023-05-04T02:41:01.015Z,5.90
2023-05-04T02:43:28.542Z,5.70
2023-05-04T02:45:56.140Z,5.40
2023-05-04T02:48:24.954Z,5.50
2023-05-04T02:50:52.778Z,5.60
2023-05-04T02:53:20.258Z,6.23
2023-05-04T02:55:47.803Z,6.20
2023-05-04T02:58:15.387Z,6.13
2023-05-04T03:00:43.012Z,6.73
2023-05-04T03:03:10.513Z,6.50
2023-05-04T03:05:38.048Z,6.97
2023-05-04T03:08:05.669Z,6.17
2023-05-04T03:10:33.221Z,6.20
2023-05-04T03:13:00.763Z,6.57
2023-05-04T03:15:28.462Z,6.27
2023-05-04T03:17:56.030Z,6.60
2023-05-04T03:20:23.668Z,6.67
2023-05-04T03:22:51.222Z,6.67
2023-05-04T03:25:18.883Z,5.83
2023-05-04T03:27:46.410Z,6.87
2023-05-04T03:30:14.036Z,6.20
2023-05-04T03:32:41.712Z,6.57
2023-05-04T03:35:09.459Z,6.33
2023-05-04T03:37:36.981Z,6.57
2023-05-04T03:40:04.882Z,6.20
2023-05-04T03:42:32.536Z,6.43
2023-05-04T03:45:01.804Z,6.50
2023-05-04T03:47:31.442Z,5.63
2023-05-04T03:49:58.963Z,6.73
2023-05-04T03:52:26.532Z,5.43
2023-05-04T03:54:54.018Z,6.97
2023-05-04T03:57:21.577Z,6.30
2023-05-04T03:59:49.090Z,5.80
2023-05-04T04:02:16.950Z,5.90
2023-05-04T04:04:44.667Z,6.57
2023-05-04T04:07:12.258Z,7.03
2023-05-04T04:09:39.770Z,5.97
2023-05-04T04:12:07.349Z,6.50
2023-05-04T04:14:34.863Z,6.67
2023-05-04T04:17:02.405Z,6.97
2023-05-04T04:19:29.933Z,6.73
2023-05-04T04:21:57.525Z,6.73
2023-05-04T04:24:25.006Z,6.80
2023-05-04T04:26:52.651Z,7.07
2023-05-04T04:29:20.158Z,6.67
2023-05-04T04:31:47.742Z,7.40
2023-05-04T04:34:15.313Z,7.23
2023-05-04T04:36:42.900Z,6.33
2023-05-04T04:39:10.443Z,7.17
2023-05-04T04:41:38.095Z,7.13
2023-05-04T04:44:05.708Z,7.50
2023-05-04T04:46:33.406Z,7.10
2023-05-04T04:49:01.022Z,7.00
2023-05-04T04:51:28.608Z,6.90
2023-05-04T04:53:56.165Z,7.53
2023-05-04T04:56:23.734Z,6.70
2023-05-04T04:58:51.254Z,6.43
2023-05-04T05:01:18.869Z,5.57
2023-05-04T05:03:46.446Z,5.67
2023-05-04T05:06:14.254Z,5.87
2023-05-04T05:08:41.872Z,6.33
2023-05-04T05:11:09.449Z,5.67
2023-05-04T05:13:37.112Z,5.83
2023-05-04T05:16:04.816Z,5.33
2023-05-04T05:18:32.426Z,5.33
2023-05-04T05:21:00.059Z,5.20
2023-05-04T05:23:27.567Z,5.33
2023-05-04T05:25:55.142Z,4.70
2023-05-04T05:28:22.673Z,5.30
2023-05-04T05:30:50.259Z,5.30
2023-05-04T05:33:18.092Z,5.27
2023-05-04T05:35:45.885Z,5.83
2023-05-04T05:38:13.519Z,5.67
2023-05-04T05:40:41.029Z,5.70
2023-05-04T05:43:08.540Z,5.50
2023-05-04T05:45:36.536Z,5.33
2023-05-04T05:48:04.246Z,5.30
2023-05-04T05:50:31.946Z,5.23
2023-05-04T05:52:59.467Z,5.57
2023-05-04T05:55:27.097Z,4.90
2023-05-04T05:57:54.644Z,5.30
2023-05-04T06:00:22.269Z,5.43
2023-05-04T06:02:49.856Z,5.43
2023-05-04T06:05:17.725Z,4.90
2023-05-04T06:07:45.282Z,4.50
2023-05-04T06:10:12.970Z,5.40
2023-05-04T06:12:40.519Z,5.43
2023-05-04T06:15:08.482Z,5.50
2023-05-04T06:17:36.293Z,4.67
2023-05-04T06:20:04.205Z,4.80
2023-05-04T06:22:32.391Z,5.20
2023-05-04T06:25:03.686Z,4.67
2023-05-04T06:27:34.031Z,5.20
2023-05-04T06:30:01.610Z,4.20
2023-05-04T06:32:31.921Z,5.10
2023-05-04T06:34:59.544Z,5.13
2023-05-04T06:37:27.099Z,4.70
2023-05-04T06:39:55.217Z,5.07
2023-05-04T06:42:22.787Z,5.30
2023-05-04T06:44:50.366Z,5.00
2023-05-04T06:47:17.916Z,4.83
2023-05-04T06:49:45.459Z,4.40
2023-05-04T06:52:13.026Z,4.80
2023-05-04T06:54:40.602Z,4.80
2023-05-04T06:57:08.122Z,4.57
2023-05-04T06:59:35.739Z,5.00
2023-05-04T07:02:03.264Z,4.20
2023-05-04T07:04:30.805Z,3.33
2023-05-04T07:06:58.284Z,3.20
2023-05-04T07:09:25.921Z,3.50
2023-05-04T07:11:53.462Z,3.03
2023-05-04T07:14:21.087Z,3.03
2023-05-04T07:16:48.731Z,3.27
2023-05-04T07:19:16.425Z,3.10
2023-05-04T07:21:44.066Z,2.97
2023-05-04T07:24:12.784Z,3.57
2023-05-04T07:26:40.331Z,3.20
2023-05-04T07:29:07.882Z,3.60
2023-05-04T07:31:35.466Z,3.70
2023-05-04T07:34:04.304Z,3.00
2023-05-04T07:36:31.862Z,3.07
2023-05-04T07:38:59.481Z,3.50
2023-05-04T07:41:26.989Z,3.37
2023-05-04T07:43:54.588Z,3.37
2023-05-04T07:46:22.132Z,3.37
2023-05-04T07:48:49.871Z,3.10
2023-05-04T07:51:17.422Z,3.43
2023-05-04T07:53:45.002Z,3.20
2023-05-04T07:56:13.183Z,3.50
2023-05-04T07:58:40.854Z,3.40
2023-05-04T08:01:08.503Z,3.47
2023-05-04T08:03:36.631Z,3.60
2023-05-04T08:06:04.387Z,3.60
2023-05-04T08:08:31.970Z,3.57
2023-05-04T08:11:11.956Z,3.80
2023-05-04T08:13:46.876Z,3.80
2023-05-04T08:16:14.594Z,3.47
2023-05-04T08:18:42.211Z,3.20
2023-05-04T08:21:09.867Z,3.37
2023-05-04T08:23:37.497Z,3.30
2023-05-04T08:26:05.437Z,4.20
2023-05-04T08:28:36.861Z,4.00
2023-05-04T08:31:04.509Z,3.30
2023-05-04T08:33:32.126Z,3.90
2023-05-04T08:35:59.826Z,3.90
2023-05-04T08:38:37.319Z,3.20
2023-05-04T08:41:05.818Z,3.50
2023-05-04T08:43:36.714Z,4.73
2023-05-04T08:46:04.583Z,3.70
2023-05-04T08:48:32.659Z,4.23
2023-05-04T08:51:01.465Z,4.33
2023-05-04T08:53:32.279Z,4.00
2023-05-04T08:56:00.772Z,4.30
2023-05-04T08:58:28.546Z,3.93
2023-05-04T09:00:57.509Z,3.63
2023-05-04T09:03:25.540Z,4.87
2023-05-04T09:05:53.264Z,4.77
2023-05-04T09:08:20.894Z,4.80
2023-05-04T09:10:48.563Z,4.80
2023-05-04T09:13:16.174Z,5.20
2023-05-04T09:15:43.802Z,5.40
2023-05-04T09:18:11.396Z,6.23
2023-05-04T09:20:45.926Z,5.70
2023-05-04T09:23:14.075Z,5.63
2023-05-04T09:25:48.511Z,5.53
2023-05-04T09:28:16.674Z,5.80
2023-05-04T09:30:44.580Z,5.43
2023-05-04T09:33:13.842Z,5.20
2023-05-04T09:35:42.113Z,5.60
2023-05-04T09:38:10.164Z,5.47
2023-05-04T09:40:38.581Z,5.60
2023-05-04T09:43:06.146Z,4.90
2023-05-04T09:45:44.294Z,5.10
2023-05-04T09:48:15.886Z,4.90
2023-05-04T09:50:53.213Z,5.40
2023-05-04T09:53:22.161Z,4.87
2023-05-04T09:55:55.592Z,5.50
2023-05-04T09:58:23.832Z,4.93
2023-05-04T10:00:51.542Z,4.90
2023-05-04T10:03:19.574Z,5.33
2023-05-04T10:05:47.696Z,5.07
2023-05-04T10:08:16.253Z,5.10
2023-05-04T10:10:44.707Z,4.90
2023-05-04T10:13:12.412Z,5.90
2023-05-04T10:15:43.051Z,5.27
2023-05-04T10:18:29.742Z,5.50
2023-05-04T10:21:03.466Z,5.80
2023-05-04T10:23:46.169Z,5.10
2023-05-04T10:26:32.422Z,4.30
2023-05-04T10:29:23.493Z,4.70
2023-05-04T10:31:51.656Z,4.30
2023-05-04T10:34:25.955Z,4.60
2023-05-04T10:36:53.644Z,3.97
2023-05-04T10:39:21.571Z,4.03
2023-05-04T10:42:04.234Z,4.23
2023-05-04T10:44:36.732Z,4.10
2023-05-04T10:47:05.459Z,4.87
2023-05-04T10:49:33.680Z,3.87
2023-05-04T10:52:14.026Z,3.83
2023-05-04T10:54:41.853Z,4.03
2023-05-04T10:57:10.109Z,4.03
2023-05-04T10:59:38.067Z,4.10
2023-05-04T11:02:06.377Z,3.80
2023-05-04T11:04:34.365Z,3.47
2023-05-04T11:07:06.029Z,3.47
2023-05-04T11:09:40.178Z,4.30
2023-05-04T11:12:08.264Z,3.80
2023-05-04T11:14:35.763Z,4.67
2023-05-04T11:17:26.843Z,4.03
2023-05-04T11:19:55.977Z,3.90
2023-05-04T11:22:23.619Z,3.90
2023-05-04T11:24:51.227Z,4.00
2023-05-04T11:27:29.539Z,3.50
2023-05-04T11:30:01.359Z,3.57
2023-05-04T11:32:41.976Z,3.67
2023-05-04T11:35:15.744Z,3.07
2023-05-04T11:37:43.955Z,3.23
2023-05-04T11:40:12.794Z,3.20
2023-05-04T11:42:40.691Z,3.37
2023-05-04T11:45:11.376Z,3.17
2023-05-04T11:47:39.417Z,3.20
2023-05-04T11:50:07.740Z,2.60
2023-05-04T11:52:35.340Z,3.37
2023-05-04T11:55:06.347Z,3.17
2023-05-04T11:57:34.066Z,2.83
2023-05-04T12:00:01.620Z,3.23
2023-05-04T12:02:29.326Z,3.20
2023-05-04T12:04:56.985Z,3.30
2023-05-04T12:07:24.588Z,3.60
2023-05-04T12:09:52.150Z,3.83
2023-05-04T12:12:20.073Z,4.03
2023-05-04T12:14:56.607Z,3.30
2023-05-04T12:17:24.278Z,2.97
2023-05-04T12:19:52.576Z,3.30
2023-05-04T12:22:27.140Z,3.13
2023-05-04T12:24:54.825Z,2.87
2023-05-04T12:27:22.406Z,3.00
2023-05-04T12:29:50.008Z,3.07
2023-05-04T12:32:17.596Z,3.40
2023-05-04T12:34:45.348Z,2.97
2023-05-04T12:37:13.006Z,3.03
2023-05-04T12:39:40.760Z,3.23
2023-05-04T12:42:08.345Z,3.33
2023-05-04T12:44:36.196Z,3.07
2023-05-04T12:47:03.806Z,2.63
2023-05-04T12:49:31.463Z,2.60
2023-05-04T12:51:59.011Z,2.60
2023-05-04T12:54:26.618Z,3.03
2023-05-04T12:56:54.181Z,2.80
2023-05-04T12:59:21.845Z,2.70
2023-05-04T13:01:49.408Z,2.47
2023-05-04T13:04:17.359Z,2.60
2023-05-04T13:06:46.963Z,2.67
2023-05-04T13:09:15.826Z,2.60
2023-05-04T13:11:43.368Z,2.63
2023-05-04T13:14:11.568Z,2.30
2023-05-04T13:16:39.143Z,2.70
2023-05-04T13:19:06.910Z,2.67
2023-05-04T13:21:34.482Z,2.63
2023-05-04T13:24:02.158Z,2.77
2023-05-04T13:26:29.760Z,2.40
2023-05-04T13:28:57.440Z,2.43
2023-05-04T13:31:25.135Z,2.50
2023-05-04T13:33:52.703Z,2.50
2023-05-04T13:36:20.336Z,2.70
2023-05-04T13:38:47.876Z,2.30
2023-05-04T13:41:15.397Z,2.40
2023-05-04T13:43:43.010Z,2.50
2023-05-04T13:46:10.612Z,2.50
2023-05-04T13:48:38.233Z,2.20
2023-05-04T13:51:05.798Z,2.50
2023-05-04T13:53:33.380Z,2.30
2023-05-04T13:56:00.880Z,2.60
2023-05-04T13:58:28.495Z,2.50
2023-05-04T14:00:56.099Z,2.50
2023-05-04T14:03:23.891Z,2.20
2023-05-04T14:05:52.179Z,3.97
2023-05-04T14:08:19.768Z,3.90
2023-05-04T14:10:47.314Z,2.50
2023-05-04T14:13:15.045Z,2.60
2023-05-04T14:15:42.659Z,4.00
2023-05-04T14:18:10.362Z,2.90
2023-05-04T14:20:37.945Z,3.53
2023-05-04T14:23:05.572Z,2.77
2023-05-04T14:25:33.126Z,2.60
2023-05-04T14:28:00.710Z,2.50
2023-05-04T14:30:28.285Z,2.10
2023-05-04T14:32:56.272Z,2.43
2023-05-04T14:35:23.928Z,2.50
2023-05-04T14:37:51.602Z,2.17
2023-05-04T14:40:19.293Z,2.47
2023-05-04T14:42:47.145Z,2.47
2023-05-04T14:45:15.791Z,2.33
2023-05-04T14:47:43.481Z,2.70
2023-05-04T14:50:11.445Z,2.40
2023-05-04T14:52:39.135Z,2.57
2023-05-04T14:55:06.894Z,2.33
2023-05-04T14:57:34.492Z,2.30
2023-05-04T15:00:02.101Z,2.60
2023-05-04T15:02:29.745Z,2.73
2023-05-04T15:04:57.295Z,2.67
2023-05-04T15:07:24.843Z,2.30
2023-05-04T15:09:52.343Z,2.67
2023-05-04T15:12:19.978Z,3.83
2023-05-04T15:14:47.563Z,2.37
2023-05-04T15:17:15.312Z,2.40
2023-05-04T15:19:42.820Z,2.70
2023-05-04T15:22:10.474Z,2.57
2023-05-04T15:24:37.975Z,2.00
2023-05-04T15:27:05.532Z,2.33
2023-05-04T15:29:33.038Z,2.33
2023-05-04T15:32:00.686Z,2.50
2023-05-04T15:34:28.253Z,2.10
2023-05-04T15:36:55.940Z,2.40
2023-05-04T15:39:23.499Z,2.20
2023-05-04T15:41:51.061Z,2.30
2023-05-04T15:44:18.563Z,2.53
2023-05-04T15:46:46.189Z,2.60
2023-05-04T15:49:13.791Z,2.20
2023-05-04T15:51:41.348Z,2.20
2023-05-04T15:54:08.817Z,2.40
2023-05-04T15:56:36.379Z,2.40
2023-05-04T15:59:03.933Z,2.17
2023-05-04T16:01:31.688Z,2.20
2023-05-04T16:03:59.458Z,2.33
2023-05-04T16:06:27.235Z,2.30
2023-05-04T16:08:54.779Z,2.67
2023-05-04T16:11:22.438Z,2.17
2023-05-04T16:13:49.994Z,2.33
2023-05-04T16:16:17.627Z,2.37
2023-05-04T16:18:45.200Z,2.60
2023-05-04T16:21:12.764Z,2.30
2023-05-04T16:23:40.303Z,2.10
2023-05-04T16:26:07.912Z,2.27
2023-05-04T16:28:35.513Z,2.93
2023-05-04T16:31:03.512Z,2.30
2023-05-04T16:33:31.127Z,2.23
2023-05-04T16:35:58.743Z,2.43
2023-05-04T16:38:26.294Z,2.20
2023-05-04T16:40:53.851Z,2.33
2023-05-04T16:43:21.462Z,2.30
2023-05-04T16:45:49.098Z,2.40
2023-05-04T16:48:16.650Z,2.23
2023-05-04T16:50:44.232Z,2.40
2023-05-04T16:53:11.808Z,2.50
2023-05-04T16:55:39.394Z,2.47
2023-05-04T16:58:06.917Z,2.43
2023-05-04T17:00:34.606Z,2.80
2023-05-04T17:03:02.174Z,2.43
2023-05-04T17:05:29.829Z,2.50
2023-05-04T17:07:57.344Z,2.73
2023-05-04T17:10:24.948Z,2.90
2023-05-04T17:12:55.610Z,2.60
2023-05-04T17:15:23.485Z,2.27
2023-05-04T17:17:51.133Z,2.33
2023-05-04T17:20:18.810Z,2.30
2023-05-04T17:22:46.372Z,2.50
2023-05-04T17:25:14.160Z,2.60
2023-05-04T17:27:42.245Z,2.57
2023-05-04T17:30:10.186Z,2.43
2023-05-04T17:32:37.937Z,2.50
2023-05-04T17:35:20.121Z,2.30
2023-05-04T17:37:53.441Z,2.30
2023-05-04T17:40:22.039Z,2.90
2023-05-04T17:42:49.695Z,2.63
2023-05-04T17:45:18.727Z,2.43
2023-05-04T17:47:46.484Z,2.30
2023-05-04T17:50:14.066Z,2.30
2023-05-04T17:52:41.661Z,2.63
2023-05-04T17:55:09.391Z,2.70
2023-05-04T17:57:36.974Z,2.60
2023-05-04T18:00:04.752Z,2.60
2023-05-04T18:02:33.853Z,2.60
2023-05-04T18:05:01.362Z,3.13
2023-05-04T18:07:28.974Z,2.50
2023-05-04T18:09:56.472Z,2.57
2023-05-04T18:12:24.099Z,2.40
2023-05-04T18:14:51.604Z,2.40
2023-05-04T18:17:22.440Z,2.50
2023-05-04T18:19:50.714Z,3.07
2023-05-04T18:22:18.220Z,2.43
2023-05-04T18:24:45.820Z,2.67
2023-05-04T18:27:13.385Z,2.97
2023-05-04T18:29:40.997Z,3.67
2023-05-04T18:32:08.552Z,2.80
2023-05-04T18:34:36.145Z,2.73
2023-05-04T18:37:03.656Z,3.10
2023-05-04T18:39:31.239Z,3.00
2023-05-04T18:42:00.188Z,3.20
2023-05-04T18:44:27.874Z,2.70
2023-05-04T18:46:55.431Z,2.70
2023-05-04T18:49:23.028Z,2.90
2023-05-04T18:51:50.618Z,2.87
2023-05-04T18:54:18.160Z,2.87
2023-05-04T18:56:45.657Z,2.97
2023-05-04T18:59:13.391Z,2.90
2023-05-04T19:01:40.971Z,3.20
2023-05-04T19:04:08.711Z,3.17
2023-05-04T19:06:36.389Z,3.30
2023-05-04T19:09:04.197Z,3.00
2023-05-04T19:11:31.836Z,3.43
2023-05-04T19:13:59.485Z,3.30
2023-05-04T19:16:27.052Z,3.50
2023-05-04T19:18:54.753Z,3.47
2023-05-04T19:21:22.419Z,3.30
2023-05-04T19:23:50.007Z,3.30
2023-05-04T19:26:17.543Z,4.17
2023-05-04T19:28:45.038Z,3.83
2023-05-04T19:31:13.046Z,3.50
2023-05-04T19:33:48.444Z,3.37
2023-05-04T19:36:16.985Z,3.50
2023-05-04T19:38:44.729Z,3.50
2023-05-04T19:41:12.416Z,3.77
2023-05-04T19:43:40.052Z,4.00
2023-05-04T19:46:07.674Z,4.30
2023-05-04T19:48:35.226Z,3.80
2023-05-04T19:51:02.807Z,3.97
2023-05-04T19:53:30.352Z,4.03
2023-05-04T19:56:01.687Z,3.63
2023-05-04T19:58:29.456Z,4.10
2023-05-04T20:00:57.177Z,4.30
2023-05-04T20:03:24.861Z,4.20
2023-05-04T20:05:54.049Z,4.43
2023-05-04T20:08:22.134Z,3.80
2023-05-04T20:10:49.675Z,4.03
2023-05-04T20:13:17.294Z,4.07
2023-05-04T20:15:44.973Z,3.60
2023-05-04T20:18:12.629Z,3.90
2023-05-04T20:20:40.183Z,4.17
2023-05-04T20:23:08.431Z,3.80
2023-05-04T20:25:39.260Z,3.70
2023-05-04T20:28:06.851Z,4.17
2023-05-04T20:30:35.299Z,3.77
2023-05-04T20:33:06.123Z,3.90
2023-05-04T20:35:33.719Z,3.70
2023-05-04T20:38:01.470Z,4.17
2023-05-04T20:40:29.077Z,3.83
2023-05-04T20:42:56.731Z,4.03
2023-05-04T20:45:24.350Z,3.93
2023-05-04T20:47:51.897Z,3.70
2023-05-04T20:50:19.602Z,3.90
2023-05-04T20:52:47.149Z,4.33
2023-05-04T20:55:14.720Z,3.70
2023-05-04T20:57:42.989Z,3.77
2023-05-04T21:00:23.340Z,3.80
2023-05-04T21:02:51.821Z,4.10
2023-05-04T21:05:20.779Z,4.00
2023-05-04T21:07:50.312Z,3.77
2023-05-04T21:10:22.217Z,4.07
2023-05-04T21:12:52.332Z,4.20
2023-05-04T21:15:20.390Z,4.10
2023-05-04T21:17:54.480Z,3.60
2023-05-04T21:20:24.785Z,3.87
2023-05-04T21:22:56.620Z,4.10
2023-05-04T21:25:27.964Z,4.10
2023-05-04T21:27:57.538Z,3.57
2023-05-04T21:30:25.362Z,4.03
2023-05-04T21:32:53.642Z,3.73
2023-05-04T21:35:21.172Z,3.93
2023-05-04T21:37:49.269Z,4.00
2023-05-04T21:40:17.624Z,4.40
2023-05-04T21:42:45.551Z,4.40
2023-05-04T21:45:13.065Z,3.97
2023-05-04T21:47:40.714Z,4.27
2023-05-04T21:50:08.579Z,4.40
2023-05-04T21:52:36.460Z,4.27
2023-05-04T21:55:04.082Z,4.07
2023-05-04T21:57:31.668Z,4.17
2023-05-04T21:59:59.515Z,4.00
2023-05-04T22:02:27.155Z,4.20
2023-05-04T22:04:54.738Z,4.63
2023-05-04T22:07:22.260Z,4.63
2023-05-04T22:09:49.778Z,3.70
2023-05-04T22:12:17.745Z,4.30
2023-05-04T22:14:45.599Z,4.23
2023-05-04T22:17:13.168Z,4.20
2023-05-04T22:19:40.744Z,3.93
2023-05-04T22:22:11.684Z,4.00
2023-05-04T22:24:40.056Z,4.20
2023-05-04T22:27:07.762Z,4.07
2023-05-04T22:29:36.100Z,4.30
2023-05-04T22:32:03.933Z,4.47
2023-05-04T22:34:31.497Z,4.37
2023-05-04T22:36:59.071Z,4.47
2023-05-04T22:39:26.615Z,4.80
2023-05-04T22:41:54.127Z,4.10
2023-05-04T22:44:22.187Z,4.40
2023-05-04T22:46:49.766Z,4.50
2023-05-04T22:49:17.665Z,4.40
2023-05-04T22:51:45.157Z,3.90
2023-05-04T22:54:12.680Z,4.17
2023-05-04T22:56:40.176Z,4.20
2023-05-04T22:59:07.852Z,3.93
2023-05-04T23:01:35.407Z,3.67
2023-05-04T23:04:03.021Z,4.33
2023-05-04T23:06:33.292Z,4.10
2023-05-04T23:09:02.649Z,3.93
2023-05-04T23:11:30.148Z,3.93
2023-05-04T23:13:57.760Z,4.37
2023-05-04T23:16:25.387Z,3.80
2023-05-04T23:18:52.932Z,4.13
2023-05-04T23:21:20.551Z,4.23
2023-05-04T23:23:50.396Z,4.80
2023-05-04T23:26:18.029Z,4.40
2023-05-04T23:28:45.567Z,4.63
2023-05-04T23:31:13.160Z,4.20
2023-05-04T23:33:40.716Z,4.17
2023-05-04T23:36:08.682Z,4.13
2023-05-04T23:38:36.174Z,4.80
2023-05-04T23:41:03.870Z,4.40
2023-05-04T23:43:31.654Z,4.83
2023-05-04T23:45:59.912Z,4.70
2023-05-04T23:48:27.485Z,3.93
2023-05-04T23:50:55.444Z,4.73
2023-05-04T23:53:22.932Z,4.90
2023-05-04T23:56:02.714Z,4.67
2023-05-04T23:58:32.016Z,4.87
